sensor_id;sensor_type;location;lat;lon;timestamp;pressure;altitude;pressure_sealevel;temperature;humidity
14393;BME280;7281;42.678;23.372;2023-04-15T00:01:50;94342.84;;;12.87;44.03
14393;BME280;7281;42.678;23.372;2023-04-15T00:04:17;94340.06;;;12.97;43.50
14393;BME280;7281;42.678;23.372;2023-04-15T00:06:51;94346.34;;;13.01;45.40
14393;BME280;7281;42.678;23.372;2023-04-15T00:09:20;94344.03;;;13.18;44.21
14393;BME280;7281;42.678;23.372;2023-04-15T00:11:47;94363.56;;;13.12;43.18
14393;BME280;7281;42.678;23.372;2023-04-15T00:14:15;94388.66;;;12.34;45.19
14393;BME280;7281;42.678;23.372;2023-04-15T00:16:42;94378.50;;;12.51;45.16
14393;BME280;7281;42.678;23.372;2023-04-15T00:19:09;94372.16;;;12.76;44.15
14393;BME280;7281;42.678;23.372;2023-04-15T00:21:36;94373.97;;;13.04;44.16
14393;BME280;7281;42.678;23.372;2023-04-15T00:24:03;94367.44;;;13.20;43.47
14393;BME280;7281;42.678;23.372;2023-04-15T00:26:30;94366.44;;;13.35;43.44
14393;BME280;7281;42.678;23.372;2023-04-15T00:28:56;94362.66;;;12.56;45.19
14393;BME280;7281;42.678;23.372;2023-04-15T00:31:24;94364.06;;;12.72;45.54
14393;BME280;7281;42.678;23.372;2023-04-15T00:33:50;94358.97;;;13.04;44.94
14393;BME280;7281;42.678;23.372;2023-04-15T00:36:18;94364.22;;;12.81;46.68
14393;BME280;7281;42.678;23.372;2023-04-15T00:38:44;94360.81;;;13.23;46.11
14393;BME280;7281;42.678;23.372;2023-04-15T00:41:11;94365.50;;;13.26;46.61
14393;BME280;7281;42.678;23.372;2023-04-15T00:43:38;94363.16;;;13.43;45.72
14393;BME280;7281;42.678;23.372;2023-04-15T00:46:05;94369.69;;;13.27;44.86
14393;BME280;7281;42.678;23.372;2023-04-15T00:48:33;94374.75;;;13.23;45.57
14393;BME280;7281;42.678;23.372;2023-04-15T00:51:00;94386.81;;;12.82;46.16
14393;BME280;7281;42.678;23.372;2023-04-15T00:53:27;94379.28;;;12.75;46.71
14393;BME280;7281;42.678;23.372;2023-04-15T00:55:54;94378.13;;;12.81;46.80
14393;BME280;7281;42.678;23.372;2023-04-15T00:58:22;94371.63;;;13.02;45.90
14393;BME280;7281;42.678;23.372;2023-04-15T01:00:49;94373.81;;;12.90;45.81
14393;BME280;7281;42.678;23.372;2023-04-15T01:03:19;94375.63;;;12.95;45.40
14393;BME280;7281;42.678;23.372;2023-04-15T01:05:46;94380.78;;;13.23;45.06
14393;BME280;7281;42.678;23.372;2023-04-15T01:08:14;94381.59;;;13.00;45.68
14393;BME280;7281;42.678;23.372;2023-04-15T01:10:40;94382.00;;;13.12;46.10
14393;BME280;7281;42.678;23.372;2023-04-15T01:13:07;94379.78;;;13.19;44.97
14393;BME280;7281;42.678;23.372;2023-04-15T01:15:34;94380.94;;;13.32;45.38
14393;BME280;7281;42.678;23.372;2023-04-15T01:18:01;94366.44;;;13.35;45.34
14393;BME280;7281;42.678;23.372;2023-04-15T01:20:28;94367.66;;;13.42;44.81
14393;BME280;7281;42.678;23.372;2023-04-15T01:22:55;94367.63;;;13.23;45.12
14393;BME280;7281;42.678;23.372;2023-04-15T01:25:40;94369.75;;;13.21;45.47
14393;BME280;7281;42.678;23.372;2023-04-15T01:28:07;94359.19;;;13.08;45.29
14393;BME280;7281;42.678;23.372;2023-04-15T01:30:35;94353.06;;;13.12;46.44
14393;BME280;7281;42.678;23.372;2023-04-15T01:33:02;94360.38;;;12.26;47.65
14393;BME280;7281;42.678;23.372;2023-04-15T01:35:29;94360.25;;;12.36;47.77
14393;BME280;7281;42.678;23.372;2023-04-15T01:37:58;94363.09;;;12.63;47.12
14393;BME280;7281;42.678;23.372;2023-04-15T01:40:29;94363.81;;;12.92;46.34
14393;BME280;7281;42.678;23.372;2023-04-15T01:42:57;94368.53;;;12.95;46.82
14393;BME280;7281;42.678;23.372;2023-04-15T01:45:23;94381.59;;;13.00;45.85
14393;BME280;7281;42.678;23.372;2023-04-15T01:47:50;94379.22;;;13.04;45.95
14393;BME280;7281;42.678;23.372;2023-04-15T01:50:17;94374.09;;;13.12;46.33
14393;BME280;7281;42.678;23.372;2023-04-15T01:52:44;94384.19;;;13.05;46.15
14393;BME280;7281;42.678;23.372;2023-04-15T01:55:11;94375.53;;;13.23;46.35
14393;BME280;7281;42.678;23.372;2023-04-15T01:57:38;94387.47;;;12.92;46.29
14393;BME280;7281;42.678;23.372;2023-04-15T02:00:05;94390.25;;;12.82;44.38
14393;BME280;7281;42.678;23.372;2023-04-15T02:02:39;94399.75;;;12.78;44.44
14393;BME280;7281;42.678;23.372;2023-04-15T02:05:06;94394.34;;;12.88;43.75
14393;BME280;7281;42.678;23.372;2023-04-15T02:07:33;94386.53;;;12.83;43.73
14393;BME280;7281;42.678;23.372;2023-04-15T02:10:00;94382.06;;;12.60;44.60
14393;BME280;7281;42.678;23.372;2023-04-15T02:12:28;94385.19;;;12.86;44.80
14393;BME280;7281;42.678;23.372;2023-04-15T02:14:55;94390.69;;;12.89;44.43
14393;BME280;7281;42.678;23.372;2023-04-15T02:17:22;94379.59;;;12.92;43.66
14393;BME280;7281;42.678;23.372;2023-04-15T02:19:48;94380.25;;;12.79;44.31
14393;BME280;7281;42.678;23.372;2023-04-15T02:22:15;94381.41;;;12.73;44.65
14393;BME280;7281;42.678;23.372;2023-04-15T02:24:45;94377.25;;;12.67;45.56
14393;BME280;7281;42.678;23.372;2023-04-15T02:27:15;94363.75;;;12.55;45.28
14393;BME280;7281;42.678;23.372;2023-04-15T02:29:43;94376.31;;;12.58;45.35
14393;BME280;7281;42.678;23.372;2023-04-15T02:32:14;94381.00;;;12.09;46.19
14393;BME280;7281;42.678;23.372;2023-04-15T02:34:40;94378.25;;;12.24;45.30
14393;BME280;7281;42.678;23.372;2023-04-15T02:37:09;94366.06;;;12.33;45.71
14393;BME280;7281;42.678;23.372;2023-04-15T02:39:37;94365.72;;;12.40;45.02
14393;BME280;7281;42.678;23.372;2023-04-15T02:42:04;94360.03;;;12.33;44.95
14393;BME280;7281;42.678;23.372;2023-04-15T02:44:35;94378.34;;;12.14;45.63
14393;BME280;7281;42.678;23.372;2023-04-15T02:47:04;94385.47;;;12.08;45.29
14393;BME280;7281;42.678;23.372;2023-04-15T02:49:32;94380.59;;;12.26;45.71
14393;BME280;7281;42.678;23.372;2023-04-15T02:51:59;94381.06;;;12.04;45.71
14393;BME280;7281;42.678;23.372;2023-04-15T02:54:26;94402.31;;;12.02;45.62
14393;BME280;7281;42.678;23.372;2023-04-15T02:56:56;94403.56;;;12.10;45.33
14393;BME280;7281;42.678;23.372;2023-04-15T02:59:22;94404.06;;;12.17;45.10
14393;BME280;7281;42.678;23.372;2023-04-15T03:01:50;94402.53;;;11.82;45.31
14393;BME280;7281;42.678;23.372;2023-04-15T03:04:17;94407.34;;;11.65;44.75
14393;BME280;7281;42.678;23.372;2023-04-15T03:06:44;94410.91;;;11.36;45.41
14393;BME280;7281;42.678;23.372;2023-04-15T03:09:11;94398.72;;;11.60;44.76
14393;BME280;7281;42.678;23.372;2023-04-15T03:11:37;94402.38;;;11.59;44.61
14393;BME280;7281;42.678;23.372;2023-04-15T03:14:08;94407.31;;;11.27;44.47
14393;BME280;7281;42.678;23.372;2023-04-15T03:16:38;94408.25;;;11.46;44.04
14393;BME280;7281;42.678;23.372;2023-04-15T03:19:05;94423.25;;;10.81;44.49
14393;BME280;7281;42.678;23.372;2023-04-15T03:21:33;94429.34;;;11.26;44.59
14393;BME280;7281;42.678;23.372;2023-04-15T03:23:59;94423.59;;;11.23;43.62
14393;BME280;7281;42.678;23.372;2023-04-15T03:26:30;94418.84;;;11.26;43.40
14393;BME280;7281;42.678;23.372;2023-04-15T03:29:00;94423.09;;;11.11;43.68
14393;BME280;7281;42.678;23.372;2023-04-15T03:31:28;94427.84;;;11.09;44.21
14393;BME280;7281;42.678;23.372;2023-04-15T03:33:55;94440.81;;;10.76;44.65
14393;BME280;7281;42.678;23.372;2023-04-15T03:36:22;94429.53;;;10.85;44.19
14393;BME280;7281;42.678;23.372;2023-04-15T03:38:49;94436.31;;;10.96;44.52
14393;BME280;7281;42.678;23.372;2023-04-15T03:41:15;94447.41;;;10.53;45.35
14393;BME280;7281;42.678;23.372;2023-04-15T03:43:42;94432.94;;;10.81;45.36
14393;BME280;7281;42.678;23.372;2023-04-15T03:46:09;94441.81;;;10.90;45.54
14393;BME280;7281;42.678;23.372;2023-04-15T03:48:36;94453.66;;;10.77;45.85
14393;BME280;7281;42.678;23.372;2023-04-15T03:51:03;94455.22;;;10.83;45.79
14393;BME280;7281;42.678;23.372;2023-04-15T03:53:30;94461.69;;;11.01;45.39
14393;BME280;7281;42.678;23.372;2023-04-15T03:55:57;94455.50;;;10.82;45.77
14393;BME280;7281;42.678;23.372;2023-04-15T03:58:24;94465.78;;;10.58;46.18
14393;BME280;7281;42.678;23.372;2023-04-15T04:00:51;94455.19;;;10.88;46.18
14393;BME280;7281;42.678;23.372;2023-04-15T04:03:19;94455.91;;;11.04;45.71
14393;BME280;7281;42.678;23.372;2023-04-15T04:05:46;94465.13;;;10.91;46.25
14393;BME280;7281;42.678;23.372;2023-04-15T04:08:14;94458.78;;;11.12;46.08
14393;BME280;7281;42.678;23.372;2023-04-15T04:10:41;94477.22;;;10.82;46.74
14393;BME280;7281;42.678;23.372;2023-04-15T04:13:08;94466.56;;;10.39;48.01
14393;BME280;7281;42.678;23.372;2023-04-15T04:15:35;94458.66;;;10.64;47.73
14393;BME280;7281;42.678;23.372;2023-04-15T04:18:02;94462.63;;;10.46;48.29
14393;BME280;7281;42.678;23.372;2023-04-15T04:20:29;94472.06;;;10.22;49.34
14393;BME280;7281;42.678;23.372;2023-04-15T04:22:58;94472.06;;;10.22;49.49
14393;BME280;7281;42.678;23.372;2023-04-15T04:25:25;94470.50;;;10.11;50.19
14393;BME280;7281;42.678;23.372;2023-04-15T04:27:52;94467.63;;;10.43;49.85
14393;BME280;7281;42.678;23.372;2023-04-15T04:30:19;94473.34;;;10.60;48.53
14393;BME280;7281;42.678;23.372;2023-04-15T04:32:45;94465.19;;;10.76;48.71
14393;BME280;7281;42.678;23.372;2023-04-15T04:35:12;94469.56;;;11.01;48.58
14393;BME280;7281;42.678;23.372;2023-04-15T04:37:39;94461.47;;;10.92;48.76
14393;BME280;7281;42.678;23.372;2023-04-15T04:40:06;94467.63;;;11.27;47.63
14393;BME280;7281;42.678;23.372;2023-04-15T04:42:33;94478.50;;;11.54;47.29
14393;BME280;7281;42.678;23.372;2023-04-15T04:45:02;94478.97;;;11.61;47.27
14393;BME280;7281;42.678;23.372;2023-04-15T04:47:29;94470.34;;;11.65;46.59
14393;BME280;7281;42.678;23.372;2023-04-15T04:49:56;94485.16;;;11.85;46.51
14393;BME280;7281;42.678;23.372;2023-04-15T04:52:23;94483.28;;;11.90;46.49
14393;BME280;7281;42.678;23.372;2023-04-15T04:54:49;94479.31;;;11.98;46.26
14393;BME280;7281;42.678;23.372;2023-04-15T04:57:16;94481.31;;;12.11;46.26
14393;BME280;7281;42.678;23.372;2023-04-15T04:59:43;94489.63;;;12.23;46.22
14393;BME280;7281;42.678;23.372;2023-04-15T05:02:10;94500.59;;;12.30;45.63
14393;BME280;7281;42.678;23.372;2023-04-15T05:04:36;94501.56;;;12.39;45.77
14393;BME280;7281;42.678;23.372;2023-04-15T05:07:03;94502.59;;;12.43;45.86
14393;BME280;7281;42.678;23.372;2023-04-15T05:09:30;94501.63;;;12.63;45.86
14393;BME280;7281;42.678;23.372;2023-04-15T05:11:57;94506.56;;;12.69;45.75
14393;BME280;7281;42.678;23.372;2023-04-15T05:14:24;94507.63;;;12.97;45.53
14393;BME280;7281;42.678;23.372;2023-04-15T05:16:51;94518.44;;;12.90;44.89
14393;BME280;7281;42.678;23.372;2023-04-15T05:19:18;94518.03;;;13.07;44.68
14393;BME280;7281;42.678;23.372;2023-04-15T05:21:44;94528.78;;;12.19;45.67
14393;BME280;7281;42.678;23.372;2023-04-15T05:24:11;94524.16;;;12.40;45.58
14393;BME280;7281;42.678;23.372;2023-04-15T05:26:38;94521.69;;;12.82;44.17
14393;BME280;7281;42.678;23.372;2023-04-15T05:29:05;94517.97;;;13.12;45.02
14393;BME280;7281;42.678;23.372;2023-04-15T05:31:31;94518.41;;;12.95;45.06
14393;BME280;7281;42.678;23.372;2023-04-15T05:33:58;94525.44;;;12.48;44.89
14393;BME280;7281;42.678;23.372;2023-04-15T05:36:25;94527.28;;;13.04;44.10
14393;BME280;7281;42.678;23.372;2023-04-15T05:38:53;94517.03;;;13.27;44.24
14393;BME280;7281;42.678;23.372;2023-04-15T05:41:19;94514.63;;;13.54;43.64
14393;BME280;7281;42.678;23.372;2023-04-15T05:43:47;94516.41;;;13.58;43.80
14393;BME280;7281;42.678;23.372;2023-04-15T05:46:13;94515.16;;;13.51;43.28
14393;BME280;7281;42.678;23.372;2023-04-15T05:48:40;94516.28;;;13.68;42.59
14393;BME280;7281;42.678;23.372;2023-04-15T05:51:07;94514.72;;;13.86;41.65
14393;BME280;7281;42.678;23.372;2023-04-15T05:53:33;94509.78;;;13.98;42.22
14393;BME280;7281;42.678;23.372;2023-04-15T05:56:00;94513.94;;;14.04;42.16
14393;BME280;7281;42.678;23.372;2023-04-15T05:58:31;94517.19;;;13.96;42.23
14393;BME280;7281;42.678;23.372;2023-04-15T06:01:01;94530.78;;;13.66;40.24
14393;BME280;7281;42.678;23.372;2023-04-15T06:03:30;94534.94;;;14.09;42.51
14393;BME280;7281;42.678;23.372;2023-04-15T06:05:57;94533.88;;;14.10;41.77
14393;BME280;7281;42.678;23.372;2023-04-15T06:08:24;94537.72;;;14.17;43.06
14393;BME280;7281;42.678;23.372;2023-04-15T06:10:51;94537.56;;;14.46;40.07
14393;BME280;7281;42.678;23.372;2023-04-15T06:13:18;94539.13;;;14.79;39.45
14393;BME280;7281;42.678;23.372;2023-04-15T06:15:44;94533.50;;;14.99;40.11
14393;BME280;7281;42.678;23.372;2023-04-15T06:18:11;94543.25;;;14.85;40.00
14393;BME280;7281;42.678;23.372;2023-04-15T06:20:38;94532.56;;;15.09;39.67
14393;BME280;7281;42.678;23.372;2023-04-15T06:23:05;94540.94;;;14.97;39.99
14393;BME280;7281;42.678;23.372;2023-04-15T06:25:32;94549.84;;;14.69;41.86
14393;BME280;7281;42.678;23.372;2023-04-15T06:27:58;94545.22;;;14.93;40.79
14393;BME280;7281;42.678;23.372;2023-04-15T06:30:25;94543.34;;;14.80;40.11
14393;BME280;7281;42.678;23.372;2023-04-15T06:32:52;94559.00;;;14.58;40.48
14393;BME280;7281;42.678;23.372;2023-04-15T06:35:20;94562.22;;;14.55;40.86
14393;BME280;7281;42.678;23.372;2023-04-15T06:37:47;94563.56;;;13.97;40.87
14393;BME280;7281;42.678;23.372;2023-04-15T06:40:14;94568.81;;;13.97;42.94
14393;BME280;7281;42.678;23.372;2023-04-15T06:42:41;94569.25;;;14.22;42.14
14393;BME280;7281;42.678;23.372;2023-04-15T06:45:07;94566.13;;;14.02;42.15
14393;BME280;7281;42.678;23.372;2023-04-15T06:47:34;94566.97;;;14.16;42.09
14393;BME280;7281;42.678;23.372;2023-04-15T06:50:01;94566.97;;;14.72;40.96
14393;BME280;7281;42.678;23.372;2023-04-15T06:52:29;94563.38;;;14.81;40.41
14393;BME280;7281;42.678;23.372;2023-04-15T06:54:56;94575.78;;;14.49;40.57
14393;BME280;7281;42.678;23.372;2023-04-15T06:57:25;94569.72;;;14.80;40.42
14393;BME280;7281;42.678;23.372;2023-04-15T06:59:51;94568.16;;;15.39;40.73
14393;BME280;7281;42.678;23.372;2023-04-15T07:02:20;94570.91;;;15.88;38.45
14393;BME280;7281;42.678;23.372;2023-04-15T07:04:47;94567.41;;;15.65;38.84
14393;BME280;7281;42.678;23.372;2023-04-15T07:07:14;94566.00;;;15.95;38.61
14393;BME280;7281;42.678;23.372;2023-04-15T07:09:44;94570.31;;;15.64;39.04
14393;BME280;7281;42.678;23.372;2023-04-15T07:12:10;94576.00;;;15.84;38.38
14393;BME280;7281;42.678;23.372;2023-04-15T07:14:37;94574.63;;;15.87;37.68
14393;BME280;7281;42.678;23.372;2023-04-15T07:17:04;94572.66;;;15.92;40.12
14393;BME280;7281;42.678;23.372;2023-04-15T07:19:31;94567.84;;;16.08;39.91
14393;BME280;7281;42.678;23.372;2023-04-15T07:21:57;94564.38;;;15.72;41.13
14393;BME280;7281;42.678;23.372;2023-04-15T07:24:24;94567.72;;;16.13;38.97
14393;BME280;7281;42.678;23.372;2023-04-15T07:26:54;94566.53;;;16.19;38.63
14393;BME280;7281;42.678;23.372;2023-04-15T07:29:26;94561.56;;;16.53;39.04
14393;BME280;7281;42.678;23.372;2023-04-15T07:31:53;94578.81;;;16.37;38.57
14393;BME280;7281;42.678;23.372;2023-04-15T07:34:20;94569.31;;;16.14;40.17
14393;BME280;7281;42.678;23.372;2023-04-15T07:36:46;94576.41;;;16.85;38.94
14393;BME280;7281;42.678;23.372;2023-04-15T07:39:17;94568.78;;;17.45;38.14
14393;BME280;7281;42.678;23.372;2023-04-15T07:41:44;94557.03;;;16.98;38.05
14393;BME280;7281;42.678;23.372;2023-04-15T07:44:11;94563.00;;;16.81;39.61
14393;BME280;7281;42.678;23.372;2023-04-15T07:46:38;94555.44;;;16.66;38.62
14393;BME280;7281;42.678;23.372;2023-04-15T07:49:05;94567.34;;;16.77;38.57
14393;BME280;7281;42.678;23.372;2023-04-15T07:51:32;94568.53;;;16.93;37.57
14393;BME280;7281;42.678;23.372;2023-04-15T07:53:59;94579.28;;;16.17;36.89
14393;BME280;7281;42.678;23.372;2023-04-15T07:56:26;94585.09;;;16.55;37.09
14393;BME280;7281;42.678;23.372;2023-04-15T07:58:53;94583.34;;;16.94;36.51
14393;BME280;7281;42.678;23.372;2023-04-15T08:01:19;94587.31;;;16.83;36.99
14393;BME280;7281;42.678;23.372;2023-04-15T08:03:47;94586.28;;;16.93;38.45
14393;BME280;7281;42.678;23.372;2023-04-15T08:06:14;94582.47;;;17.30;37.43
14393;BME280;7281;42.678;23.372;2023-04-15T08:08:40;94576.16;;;17.87;36.84
14393;BME280;7281;42.678;23.372;2023-04-15T08:11:09;94571.38;;;17.58;37.37
14393;BME280;7281;42.678;23.372;2023-04-15T08:13:36;94571.47;;;17.84;35.36
14393;BME280;7281;42.678;23.372;2023-04-15T08:16:13;94571.94;;;17.86;35.02
14393;BME280;7281;42.678;23.372;2023-04-15T08:18:40;94587.31;;;17.36;36.57
14393;BME280;7281;42.678;23.372;2023-04-15T08:21:07;94576.53;;;17.55;34.99
14393;BME280;7281;42.678;23.372;2023-04-15T08:23:34;94576.00;;;17.92;35.51
14393;BME280;7281;42.678;23.372;2023-04-15T08:26:01;94578.56;;;18.31;35.23
14393;BME280;7281;42.678;23.372;2023-04-15T08:28:28;94574.06;;;18.49;34.86
14393;BME280;7281;42.678;23.372;2023-04-15T08:30:54;94568.59;;;18.96;33.98
14393;BME280;7281;42.678;23.372;2023-04-15T08:33:21;94566.09;;;18.32;35.93
14393;BME280;7281;42.678;23.372;2023-04-15T08:35:48;94566.41;;;18.90;33.80
14393;BME280;7281;42.678;23.372;2023-04-15T08:38:15;94556.88;;;18.89;33.64
14393;BME280;7281;42.678;23.372;2023-04-15T08:40:43;94555.47;;;19.08;32.19
14393;BME280;7281;42.678;23.372;2023-04-15T08:43:11;94554.22;;;18.97;33.50
14393;BME280;7281;42.678;23.372;2023-04-15T08:45:38;94553.09;;;19.62;33.66
14393;BME280;7281;42.678;23.372;2023-04-15T08:48:05;94548.84;;;19.32;33.32
14393;BME280;7281;42.678;23.372;2023-04-15T08:50:34;94556.00;;;19.40;33.56
14393;BME280;7281;42.678;23.372;2023-04-15T08:53:00;94547.25;;;19.31;33.36
14393;BME280;7281;42.678;23.372;2023-04-15T08:55:28;94537.72;;;19.30;32.94
14393;BME280;7281;42.678;23.372;2023-04-15T08:57:56;94543.50;;;19.78;32.75
14393;BME280;7281;42.678;23.372;2023-04-15T09:00:22;94545.44;;;19.60;31.46
14393;BME280;7281;42.678;23.372;2023-04-15T09:02:49;94535.06;;;19.76;31.65
14393;BME280;7281;42.678;23.372;2023-04-15T09:05:16;94528.75;;;20.18;29.70
14393;BME280;7281;42.678;23.372;2023-04-15T09:07:43;94528.81;;;20.01;29.01
14393;BME280;7281;42.678;23.372;2023-04-15T09:10:09;94531.22;;;19.65;29.62
14393;BME280;7281;42.678;23.372;2023-04-15T09:12:36;94530.50;;;20.05;30.36
14393;BME280;7281;42.678;23.372;2023-04-15T09:15:03;94529.31;;;19.94;30.02
14393;BME280;7281;42.678;23.372;2023-04-15T09:17:31;94518.28;;;19.55;29.86
14393;BME280;7281;42.678;23.372;2023-04-15T09:20:20;94517.19;;;19.56;30.43
14393;BME280;7281;42.678;23.372;2023-04-15T09:22:46;94512.19;;;20.04;28.86
14393;BME280;7281;42.678;23.372;2023-04-15T09:27:49;94506.13;;;20.24;29.19
14393;BME280;7281;42.678;23.372;2023-04-15T09:30:17;94507.72;;;20.25;28.67
14393;BME280;7281;42.678;23.372;2023-04-15T09:33:02;94517.16;;;20.35;28.83
14393;BME280;7281;42.678;23.372;2023-04-15T09:35:33;94516.31;;;20.22;28.44
14393;BME280;7281;42.678;23.372;2023-04-15T09:38:04;94515.38;;;20.47;27.71
14393;BME280;7281;42.678;23.372;2023-04-15T09:40:32;94511.91;;;20.47;26.56
14393;BME280;7281;42.678;23.372;2023-04-15T09:42:59;94504.91;;;20.75;25.89
14393;BME280;7281;42.678;23.372;2023-04-15T09:45:30;94502.50;;;20.49;27.59
14393;BME280;7281;42.678;23.372;2023-04-15T09:47:58;94509.00;;;20.19;28.13
14393;BME280;7281;42.678;23.372;2023-04-15T09:50:28;94509.25;;;20.67;27.35
14393;BME280;7281;42.678;23.372;2023-04-15T09:52:55;94512.97;;;20.87;25.87
14393;BME280;7281;42.678;23.372;2023-04-15T09:55:21;94507.31;;;20.56;26.03
14393;BME280;7281;42.678;23.372;2023-04-15T09:57:48;94517.38;;;20.83;26.64
14393;BME280;7281;42.678;23.372;2023-04-15T10:00:15;94524.94;;;20.93;26.11
14393;BME280;7281;42.678;23.372;2023-04-15T10:02:44;94511.75;;;21.41;25.61
14393;BME280;7281;42.678;23.372;2023-04-15T10:05:13;94520.06;;;21.15;24.89
14393;BME280;7281;42.678;23.372;2023-04-15T10:07:41;94506.75;;;21.52;25.18
14393;BME280;7281;42.678;23.372;2023-04-15T10:10:08;94508.84;;;20.89;24.33
14393;BME280;7281;42.678;23.372;2023-04-15T10:12:36;94502.72;;;21.09;24.10
14393;BME280;7281;42.678;23.372;2023-04-15T10:15:03;94495.97;;;20.91;24.58
14393;BME280;7281;42.678;23.372;2023-04-15T10:17:31;94491.00;;;20.90;25.93
14393;BME280;7281;42.678;23.372;2023-04-15T10:20:03;94495.03;;;20.63;26.72
14393;BME280;7281;42.678;23.372;2023-04-15T10:22:31;94487.66;;;21.26;25.53
14393;BME280;7281;42.678;23.372;2023-04-15T10:24:58;94486.41;;;21.11;25.83
14393;BME280;7281;42.678;23.372;2023-04-15T10:27:27;94473.00;;;21.44;25.80
14393;BME280;7281;42.678;23.372;2023-04-15T10:29:55;94465.22;;;21.39;25.31
14393;BME280;7281;42.678;23.372;2023-04-15T10:32:23;94464.78;;;21.73;25.29
14393;BME280;7281;42.678;23.372;2023-04-15T10:34:51;94459.91;;;21.87;24.53
14393;BME280;7281;42.678;23.372;2023-04-15T10:37:41;94468.88;;;21.46;26.74
14393;BME280;7281;42.678;23.372;2023-04-15T10:43:03;94457.88;;;21.72;26.36
14393;BME280;7281;42.678;23.372;2023-04-15T10:45:31;94459.34;;;21.45;27.32
14393;BME280;7281;42.678;23.372;2023-04-15T10:48:00;94462.00;;;22.33;26.59
14393;BME280;7281;42.678;23.372;2023-04-15T10:50:32;94458.25;;;21.58;26.22
14393;BME280;7281;42.678;23.372;2023-04-15T10:53:01;94465.91;;;21.60;26.61
14393;BME280;7281;42.678;23.372;2023-04-15T10:55:32;94457.47;;;21.82;26.09
14393;BME280;7281;42.678;23.372;2023-04-15T10:57:59;94460.13;;;21.58;26.00
14393;BME280;7281;42.678;23.372;2023-04-15T11:00:30;94463.66;;;21.74;25.93
14393;BME280;7281;42.678;23.372;2023-04-15T11:03:09;94465.34;;;22.30;24.38
14393;BME280;7281;42.678;23.372;2023-04-15T11:08:07;94455.22;;;21.72;23.63
14393;BME280;7281;42.678;23.372;2023-04-15T11:13:05;94456.34;;;21.47;25.49
14393;BME280;7281;42.678;23.372;2023-04-15T11:15:41;94451.22;;;21.54;25.21
14393;BME280;7281;42.678;23.372;2023-04-15T11:18:11;94452.53;;;21.96;24.27
14393;BME280;7281;42.678;23.372;2023-04-15T11:20:39;94450.56;;;21.81;25.19
14393;BME280;7281;42.678;23.372;2023-04-15T11:23:07;94441.97;;;21.75;25.08
14393;BME280;7281;42.678;23.372;2023-04-15T11:25:41;94434.75;;;22.67;24.16
14393;BME280;7281;42.678;23.372;2023-04-15T11:28:09;94434.97;;;23.05;24.72
14393;BME280;7281;42.678;23.372;2023-04-15T11:30:37;94442.13;;;22.58;25.30
14393;BME280;7281;42.678;23.372;2023-04-15T11:33:07;94438.25;;;23.14;24.36
14393;BME280;7281;42.678;23.372;2023-04-15T11:35:34;94444.88;;;23.21;24.62
14393;BME280;7281;42.678;23.372;2023-04-15T11:38:02;94445.41;;;22.40;24.91
14393;BME280;7281;42.678;23.372;2023-04-15T11:40:29;94450.47;;;22.17;24.04
14393;BME280;7281;42.678;23.372;2023-04-15T11:43:30;94451.50;;;22.95;23.51
14393;BME280;7281;42.678;23.372;2023-04-15T11:45:59;94441.09;;;23.53;23.73
14393;BME280;7281;42.678;23.372;2023-04-15T11:48:27;94446.75;;;22.73;24.54
14393;BME280;7281;42.678;23.372;2023-04-15T11:50:55;94433.16;;;22.11;24.76
14393;BME280;7281;42.678;23.372;2023-04-15T11:53:22;94434.47;;;22.57;23.23
14393;BME280;7281;42.678;23.372;2023-04-15T11:55:50;94429.38;;;22.40;21.36
14393;BME280;7281;42.678;23.372;2023-04-15T11:58:22;94430.47;;;23.09;20.98
14393;BME280;7281;42.678;23.372;2023-04-15T12:01:07;94418.59;;;23.54;20.39
14393;BME280;7281;42.678;23.372;2023-04-15T12:03:47;94425.94;;;22.39;19.72
14393;BME280;7281;42.678;23.372;2023-04-15T12:06:16;94430.91;;;22.96;21.21
14393;BME280;7281;42.678;23.372;2023-04-15T12:11:26;94424.59;;;23.20;19.90
14393;BME280;7281;42.678;23.372;2023-04-15T12:13:57;94423.22;;;22.51;20.05
14393;BME280;7281;42.678;23.372;2023-04-15T12:16:26;94427.25;;;21.66;22.24
14393;BME280;7281;42.678;23.372;2023-04-15T12:18:54;94437.00;;;21.50;22.78
14393;BME280;7281;42.678;23.372;2023-04-15T12:21:22;94420.53;;;21.72;19.74
14393;BME280;7281;42.678;23.372;2023-04-15T12:23:53;94428.13;;;22.49;19.96
14393;BME280;7281;42.678;23.372;2023-04-15T12:26:32;94419.22;;;21.78;18.85
14393;BME280;7281;42.678;23.372;2023-04-15T12:29:08;94420.31;;;21.89;19.32
14393;BME280;7281;42.678;23.372;2023-04-15T12:31:36;94424.84;;;22.40;19.14
14393;BME280;7281;42.678;23.372;2023-04-15T12:34:06;94433.13;;;21.47;19.23
14393;BME280;7281;42.678;23.372;2023-04-15T12:36:33;94433.22;;;21.87;20.09
14393;BME280;7281;42.678;23.372;2023-04-15T12:39:03;94426.13;;;21.79;19.73
14393;BME280;7281;42.678;23.372;2023-04-15T12:41:30;94430.69;;;22.18;19.69
14393;BME280;7281;42.678;23.372;2023-04-15T12:43:57;94412.44;;;22.20;19.26
14393;BME280;7281;42.678;23.372;2023-04-15T12:46:24;94433.94;;;22.39;19.68
14393;BME280;7281;42.678;23.372;2023-04-15T12:48:51;94423.44;;;22.58;19.43
14393;BME280;7281;42.678;23.372;2023-04-15T12:51:18;94423.00;;;21.89;19.33
14393;BME280;7281;42.678;23.372;2023-04-15T12:53:47;94430.75;;;22.06;19.47
14393;BME280;7281;42.678;23.372;2023-04-15T12:56:15;94428.22;;;22.25;19.34
14393;BME280;7281;42.678;23.372;2023-04-15T12:58:43;94434.25;;;21.58;19.57
14393;BME280;7281;42.678;23.372;2023-04-15T13:01:10;94432.09;;;22.00;20.11
14393;BME280;7281;42.678;23.372;2023-04-15T13:03:37;94436.28;;;22.13;19.82
14393;BME280;7281;42.678;23.372;2023-04-15T13:06:04;94439.16;;;22.08;20.05
14393;BME280;7281;42.678;23.372;2023-04-15T13:08:31;94428.88;;;21.94;19.94
14393;BME280;7281;42.678;23.372;2023-04-15T13:10:58;94434.31;;;21.74;20.23
14393;BME280;7281;42.678;23.372;2023-04-15T13:13:26;94427.66;;;21.68;20.09
14393;BME280;7281;42.678;23.372;2023-04-15T13:15:52;94430.56;;;21.87;20.05
14393;BME280;7281;42.678;23.372;2023-04-15T13:18:19;94424.53;;;23.00;19.40